Time;durP1;ratioP1;P1;durP2;ratioP2;P2;SDS_P1;SDS_P2;PMS_P1;PMS_P2;Temp;Humidity;BMP_temperature;BMP_pressure;BME280_temperature;BME280_humidity;BME280_pressure;Samples;Min_cycle;Max_cycle;Signal;HPM_P1;HPM_P2
2022/04/26 03:37:19;;;;;;;12.77;11.50;;;;;;;5.82;100.00;96015.19;5053149;28;20443;-74
2022/04/26 03:39:46;;;;;;;12.67;11.47;;;;;;;5.92;100.00;96028.06;5034788;28;21286;-74
2022/04/26 03:42:13;;;;;;;12.40;11.17;;;;;;;5.87;100.00;96030.78;5034935;28;20533;-74
2022/04/26 03:44:40;;;;;;;12.83;10.73;;;;;;;5.78;100.00;96030.00;5040480;28;20458;-74
2022/04/26 03:47:07;;;;;;;12.53;11.33;;;;;;;5.77;100.00;96028.47;5031606;28;20535;-74
2022/04/26 03:49:35;;;;;;;12.07;10.87;;;;;;;5.54;100.00;96004.13;5034710;28;20455;-74
2022/04/26 03:52:02;;;;;;;14.00;11.80;;;;;;;5.76;100.00;96040.03;5052778;28;20513;-74
2022/04/26 03:54:29;;;;;;;16.20;11.40;;;;;;;5.46;100.00;95994.34;5034647;28;20562;-74
2022/04/26 03:56:58;;;;;;;14.07;12.23;;;;;;;5.74;100.00;96030.88;5052886;28;20527;-74
2022/04/26 03:59:24;;;;;;;11.73;10.53;;;;;;;5.73;100.00;96024.09;5034670;28;20447;-74
2022/04/26 04:01:51;;;;;;;11.47;10.27;;;;;;;5.83;100.00;96029.09;5034823;28;20530;-74
2022/04/26 04:04:18;;;;;;;11.17;10.07;;;;;;;5.98;100.00;96051.53;5039706;28;20470;-74
2022/04/26 04:06:45;;;;;;;11.40;9.90;;;;;;;6.04;100.00;96053.75;5051238;28;20423;-74
2022/04/26 04:09:12;;;;;;;14.17;10.93;;;;;;;6.17;100.00;96047.63;5034395;28;20502;-74
2022/04/26 04:11:39;;;;;;;14.37;11.53;;;;;;;6.14;100.00;96055.31;5052448;28;20434;-74
2022/04/26 04:14:06;;;;;;;15.10;11.80;;;;;;;6.05;100.00;95997.56;5034126;28;20495;-74
2022/04/26 04:16:33;;;;;;;13.80;11.47;;;;;;;6.02;100.00;95995.56;5034400;28;20466;-74
2022/04/26 04:19:18;;;;;;;14.00;11.30;;;;;;;6.31;100.00;96041.47;5034128;28;20442;-74
2022/04/26 04:21:47;;;;;;;13.50;12.10;;;;;;;6.39;100.00;96057.22;5052041;28;20948;-74
2022/04/26 04:24:14;;;;;;;15.83;11.90;;;;;;;6.20;100.00;96047.00;5034475;28;20962;-74
2022/04/26 04:26:41;;;;;;;12.60;11.33;;;;;;;6.05;100.00;96050.03;5051957;28;20493;-74
2022/04/26 04:29:08;;;;;;;14.30;12.60;;;;;;;5.64;100.00;96024.06;5051968;28;20447;-74
2022/04/26 04:31:36;;;;;;;12.77;10.83;;;;;;;5.78;100.00;96044.97;5034254;28;20537;-73
2022/04/26 04:34:03;;;;;;;13.27;10.57;;;;;;;5.68;100.00;96048.63;5033836;28;20505;-73
2022/04/26 04:36:30;;;;;;;12.97;11.60;;;;;;;5.70;100.00;96051.69;5034290;28;20426;-73
2022/04/26 04:38:57;;;;;;;14.47;10.37;;;;;;;5.74;100.00;96044.78;5047123;28;20467;-73
2022/04/26 04:41:24;;;;;;;18.30;11.70;;;;;;;5.76;100.00;96042.66;5034001;28;20466;-74
2022/04/26 04:43:51;;;;;;;12.47;11.17;;;;;;;5.60;100.00;96021.25;5034199;28;20546;-74
2022/04/26 04:46:17;;;;;;;11.87;10.63;;;;;;;5.49;100.00;96008.72;5033704;28;20493;-74
2022/04/26 04:48:44;;;;;;;14.63;13.13;;;;;;;5.68;100.00;96047.84;5033751;28;20440;-74
2022/04/26 04:51:11;;;;;;;13.13;11.53;;;;;;;5.84;100.00;96056.84;5034319;28;20534;-74
2022/04/26 04:53:38;;;;;;;17.80;14.33;;;;;;;5.48;100.00;96009.81;5044348;28;20431;-74
2022/04/26 04:56:08;;;;;;;12.53;11.30;;;;;;;5.71;100.00;96044.59;5063656;28;20450;-74
2022/04/26 04:58:35;;;;;;;13.63;11.47;;;;;;;5.66;100.00;96032.41;5040970;28;20919;-74
2022/04/26 05:01:02;;;;;;;12.80;11.50;;;;;;;5.66;100.00;96021.91;5034010;28;20457;-74
2022/04/26 05:03:29;;;;;;;12.70;11.40;;;;;;;5.73;100.00;96019.63;5034076;28;20474;-73
2022/04/26 05:05:55;;;;;;;13.53;11.80;;;;;;;5.98;100.00;96043.69;5034064;28;20806;-74
2022/04/26 05:08:24;;;;;;;13.60;12.30;;;;;;;6.18;100.00;96062.28;5033717;28;20431;-73
2022/04/26 05:10:51;;;;;;;12.83;10.90;;;;;;;6.38;100.00;96068.81;5033846;28;20538;-74
2022/04/26 05:13:18;;;;;;;12.00;10.80;;;;;;;6.09;100.00;96029.22;5033627;28;20506;-74
2022/04/26 05:15:45;;;;;;;12.60;11.40;;;;;;;6.15;100.00;96049.00;5033546;28;20462;-73
2022/04/26 05:18:12;;;;;;;14.40;11.60;;;;;;;6.20;100.00;96033.88;5044195;28;20989;-74
2022/04/26 05:20:39;;;;;;;11.87;10.70;;;;;;;6.40;100.00;96068.50;5033091;28;20497;-73
2022/04/26 05:25:53;;;;;;;15.60;11.60;;;;;;;6.29;100.00;96068.03;5033116;28;20435;-73
2022/04/26 05:28:19;;;;;;;13.60;12.07;;;;;;;6.18;100.00;96040.50;5033187;28;21038;-73
2022/04/26 05:30:53;;;;;;;13.33;11.93;;;;;;;6.16;100.00;96045.31;5032973;28;20559;-74
2022/04/26 05:33:21;;;;;;;12.40;10.30;;;;;;;6.33;100.00;96063.72;5033050;28;20953;-74
2022/04/26 05:35:48;;;;;;;12.60;10.20;;;;;;;6.22;100.00;96062.44;5051347;28;20474;-74
2022/04/26 05:38:15;;;;;;;13.90;12.50;;;;;;;6.20;100.00;96056.72;5033149;28;20439;-73
2022/04/26 05:40:42;;;;;;;12.60;11.30;;;;;;;6.22;100.00;96068.47;5049725;28;20451;-74
2022/04/26 05:43:09;;;;;;;14.93;11.63;;;;;;;6.22;100.00;96067.69;5032845;28;20934;-73
2022/04/26 05:45:36;;;;;;;13.50;11.53;;;;;;;6.20;100.00;96059.34;5050897;28;20422;-73
2022/04/26 05:48:08;;;;;;;11.20;10.00;;;;;;;6.21;100.00;96071.41;5047899;28;20836;-73
2022/04/26 05:50:35;;;;;;;11.57;10.37;;;;;;;6.17;100.00;96050.25;5032894;28;20450;-74
2022/04/26 05:53:01;;;;;;;11.43;10.23;;;;;;;6.26;100.00;96050.25;5032873;28;20444;-74
2022/04/26 05:55:28;;;;;;;12.00;10.67;;;;;;;6.11;100.00;96038.31;5032681;28;20536;-74
2022/04/26 05:57:55;;;;;;;12.70;10.23;;;;;;;6.12;100.00;96033.84;5050808;28;20806;-74
2022/04/26 06:00:22;;;;;;;16.70;11.10;;;;;;;6.38;100.00;96071.44;5032803;28;20456;-74
2022/04/26 06:02:49;;;;;;;19.20;11.77;;;;;;;6.32;100.00;96062.16;5032661;28;20530;-74
2022/04/26 06:05:19;;;;;;;14.37;10.53;;;;;;;6.41;100.00;96068.22;5032807;28;21026;-74
2022/04/26 06:07:46;;;;;;;15.77;14.00;;;;;;;6.25;100.00;96067.06;5017145;28;20530;-74
2022/04/26 06:10:12;;;;;;;15.40;13.03;;;;;;;6.39;100.00;96070.34;5054702;28;20477;-74
2022/04/26 06:12:41;;;;;;;15.50;11.70;;;;;;;6.42;100.00;96051.38;5036622;28;20530;-74
2022/04/26 06:15:08;;;;;;;12.63;11.40;;;;;;;6.39;100.00;96043.34;5054518;28;20823;-74
2022/04/26 06:17:35;;;;;;;13.70;10.60;;;;;;;6.39;100.00;96048.59;5036364;28;20878;-73
2022/04/26 06:20:02;;;;;;;11.30;9.93;;;;;;;6.50;100.00;96087.38;5036314;28;20483;-73
2022/04/26 06:22:29;;;;;;;13.50;12.00;;;;;;;6.34;100.00;96057.38;5036288;28;20493;-73
2022/04/26 06:24:55;;;;;;;12.87;11.57;;;;;;;6.35;100.00;96056.31;5054601;28;20428;-73
2022/04/26 06:27:22;;;;;;;12.07;10.73;;;;;;;6.52;100.00;96076.56;5036592;28;20426;-73
2022/04/26 06:29:49;;;;;;;14.73;12.57;;;;;;;6.56;100.00;96085.41;5052623;28;20467;-73
2022/04/26 06:32:15;;;;;;;14.00;11.10;;;;;;;6.33;100.00;96049.81;5037690;28;20439;-73
2022/04/26 06:34:42;;;;;;;14.20;12.43;;;;;;;6.49;100.00;96075.34;5036199;28;20471;-73
2022/04/26 06:37:08;;;;;;;15.57;12.47;;;;;;;6.34;100.00;96057.38;5036012;28;20493;-73
2022/04/26 06:39:35;;;;;;;13.37;12.07;;;;;;;6.66;100.00;96079.06;5036426;28;20851;-72
2022/04/26 06:42:03;;;;;;;18.07;13.40;;;;;;;6.58;100.00;96092.97;5036481;28;20800;-72
2022/04/26 06:44:30;;;;;;;13.07;10.87;;;;;;;6.59;100.00;96090.03;5052647;28;20440;-73
2022/04/26 06:47:00;;;;;;;12.83;11.53;;;;;;;6.62;100.00;96089.44;5032847;28;20469;-73
2022/04/26 06:49:27;;;;;;;12.33;11.07;;;;;;;6.45;100.00;96074.41;5035964;28;20993;-73
2022/04/26 06:51:53;;;;;;;11.60;10.40;;;;;;;6.62;100.00;96099.16;5036200;28;20472;-73
2022/04/26 06:54:20;;;;;;;16.30;11.70;;;;;;;6.70;100.00;96099.19;5035795;28;20472;-73
2022/04/26 06:56:46;;;;;;;13.90;11.40;;;;;;;6.28;100.00;96027.13;5053848;28;20432;-73
2022/04/26 06:59:13;;;;;;;12.90;11.60;;;;;;;6.70;100.00;96090.53;5035648;28;21004;-73
2022/04/26 07:01:40;;;;;;;15.80;11.70;;;;;;;6.71;100.00;96102.59;5036000;28;20519;-73
2022/04/26 07:04:08;;;;;;;13.40;10.90;;;;;;;6.66;100.00;96092.97;5036142;28;20703;-73
2022/04/26 07:06:38;;;;;;;13.90;12.50;;;;;;;6.73;100.00;96093.31;5036012;28;20475;-73
2022/04/26 07:09:05;;;;;;;12.43;10.63;;;;;;;6.49;100.00;96077.97;5035490;28;20428;-73
2022/04/26 07:11:32;;;;;;;13.00;11.60;;;;;;;6.43;100.00;96079.19;5035703;28;20954;-72
2022/04/26 07:13:59;;;;;;;12.47;11.17;;;;;;;6.41;100.00;96056.91;5035572;28;20475;-72
2022/04/26 07:16:25;;;;;;;11.87;10.77;;;;;;;6.53;100.00;96080.75;5035548;28;20856;-73
2022/04/26 07:18:52;;;;;;;12.10;10.80;;;;;;;6.58;100.00;96096.38;5051389;28;20531;-73
2022/04/26 07:21:19;;;;;;;12.33;10.30;;;;;;;6.44;100.00;96082.59;5052811;28;20513;-73
2022/04/26 07:23:46;;;;;;;14.57;11.63;;;;;;;6.64;100.00;96094.38;5035343;28;20535;-73
2022/04/26 07:26:13;;;;;;;14.70;11.97;;;;;;;6.70;100.00;96098.41;5035312;28;20430;-73
2022/04/26 07:28:40;;;;;;;14.17;11.97;;;;;;;6.55;100.00;96093.59;5040313;28;20834;-73
2022/04/26 07:31:08;;;;;;;12.97;11.67;;;;;;;6.63;100.00;96090.97;5035326;28;20994;-73
2022/04/26 07:36:22;;;;;;;11.80;10.63;;;;;;;6.66;100.00;96102.72;5034985;28;20559;-73
2022/04/26 07:38:49;;;;;;;14.83;11.47;;;;;;;6.72;100.00;96112.78;5035032;28;20481;-73
2022/04/26 07:41:17;;;;;;;13.27;11.23;;;;;;;6.61;100.00;96102.88;5035022;28;20435;-73
2022/04/26 07:43:44;;;;;;;13.43;10.13;;;;;;;6.35;100.00;96058.94;5035180;28;20475;-73
2022/04/26 07:46:16;;;;;;;12.50;11.20;;;;;;;6.55;100.00;96088.34;5050377;28;20521;-73
2022/04/26 07:48:43;;;;;;;11.17;10.00;;;;;;;6.76;100.00;96124.22;5022116;28;20449;-73
2022/04/26 07:51:11;;;;;;;12.97;10.80;;;;;;;6.43;100.00;96081.81;5034738;28;20508;-73
2022/04/26 07:53:38;;;;;;;15.07;12.50;;;;;;;6.54;100.00;96105.94;5035002;28;20436;-73
2022/04/26 07:56:06;;;;;;;17.97;10.77;;;;;;;6.56;100.00;96101.16;5034603;28;20466;-73
2022/04/26 07:58:32;;;;;;;12.27;11.07;;;;;;;6.72;100.00;96127.78;5052701;28;20485;-73
2022/04/26 08:01:00;;;;;;;13.13;11.67;;;;;;;6.48;100.00;96104.53;5034613;28;20909;-73
2022/04/26 08:03:27;;;;;;;14.93;12.17;;;;;;;6.50;100.00;96105.00;5052710;28;20546;-73
2022/04/26 08:05:54;;;;;;;14.77;11.70;;;;;;;6.66;100.00;96121.09;5034475;28;20440;-73
2022/04/26 08:08:21;;;;;;;14.87;12.47;;;;;;;6.38;100.00;96112.69;5035292;28;20512;-73
2022/04/26 08:10:55;;;;;;;11.20;10.20;;;;;;;6.27;100.00;96111.41;5048263;28;20463;-73
2022/04/26 08:13:21;;;;;;;13.33;11.33;;;;;;;6.46;100.00;96149.47;5059356;28;20495;-73
2022/04/26 08:15:48;;;;;;;14.90;11.10;;;;;;;6.56;100.00;96140.56;5042364;28;20479;-73
2022/04/26 08:18:16;;;;;;;14.73;12.17;;;;;;;6.49;100.00;96142.84;5034755;28;20435;-73
2022/04/26 08:20:44;;;;;;;14.77;12.33;;;;;;;6.38;100.00;96146.81;5052126;28;21024;-73
2022/04/26 08:23:11;;;;;;;19.30;11.43;;;;;;;6.20;100.00;96119.72;5034526;28;20510;-73
2022/04/26 08:28:25;;;;;;;12.20;10.87;;;;;;;6.52;100.00;96140.38;5034173;28;20530;-73
2022/04/26 08:30:52;;;;;;;13.13;10.70;;;;;;;6.60;100.00;96152.00;5033732;28;20929;-73
2022/04/26 08:33:18;;;;;;;13.10;11.70;;;;;;;6.43;100.00;96121.22;5033986;28;20539;-73
2022/04/26 08:35:45;;;;;;;16.57;12.33;;;;;;;6.49;100.00;96156.75;5051831;28;20463;-73
2022/04/26 08:38:30;;;;;;;14.93;11.60;;;;;;;6.51;100.00;96166.94;5033752;28;20436;-73
2022/04/26 08:40:56;;;;;;;15.03;11.97;;;;;;;6.53;100.00;96162.16;5034106;28;20505;-73
2022/04/26 08:43:23;;;;;;;12.23;11.03;;;;;;;6.25;100.00;96130.09;5020518;28;20498;-73
2022/04/26 08:45:49;;;;;;;12.53;11.23;;;;;;;6.55;100.00;96146.13;5034146;28;20527;-73
2022/04/26 08:51:05;;;;;;;14.73;12.03;;;;;;;6.43;100.00;96134.34;5041191;28;20454;-73
2022/04/26 08:53:34;;;;;;;14.03;11.20;;;;;;;6.61;100.00;96147.53;5039509;28;20445;-73
2022/04/26 08:56:03;;;;;;;16.27;13.07;;;;;;;6.60;100.00;96174.88;5052494;28;20557;-73
2022/04/26 08:58:32;;;;;;;13.67;12.23;;;;;;;6.61;100.00;96168.53;5034557;28;20471;-73
2022/04/26 09:01:10;;;;;;;15.50;12.13;;;;;;;6.78;100.00;96174.59;5039521;28;20513;-73
2022/04/26 09:04:02;;;;;;;14.17;12.67;;;;;;;6.90;100.00;96175.88;5034306;28;20441;-73
2022/04/26 09:06:39;;;;;;;15.23;11.50;;;;;;;6.97;100.00;96176.22;5017771;28;20489;-73
2022/04/26 09:09:24;;;;;;;12.10;10.73;;;;;;;6.89;100.00;96183.00;5034176;28;20796;-73
2022/04/26 09:11:59;;;;;;;14.10;12.60;;;;;;;6.68;100.00;96146.00;5051594;28;20443;-73
2022/04/26 09:14:34;;;;;;;15.17;13.57;;;;;;;6.97;100.00;96160.44;5014058;28;20441;-73
2022/04/26 09:17:09;;;;;;;13.30;11.33;;;;;;;6.84;100.00;96145.56;5043708;28;20430;-73
2022/04/26 09:19:49;;;;;;;14.70;11.80;;;;;;;7.16;100.00;96170.66;5033320;28;20491;-73
2022/04/26 09:22:27;;;;;;;15.83;14.13;;;;;;;7.19;100.00;96177.94;5033748;28;20445;-73
2022/04/26 09:25:03;;;;;;;16.50;13.30;;;;;;;7.20;100.00;96177.63;5050816;28;20475;-74
2022/04/26 09:27:34;;;;;;;14.23;12.67;;;;;;;7.03;100.00;96174.97;5051432;28;20919;-73
2022/04/26 09:30:13;;;;;;;15.37;12.80;;;;;;;7.06;100.00;96179.63;5050142;28;21021;-73
2022/04/26 09:32:45;;;;;;;17.30;13.40;;;;;;;7.03;100.00;96186.25;5034179;28;20446;-73
2022/04/26 09:35:24;;;;;;;18.37;15.40;;;;;;;7.03;100.00;96180.22;5033740;28;20981;-73
2022/04/26 09:37:51;;;;;;;17.50;14.50;;;;;;;7.13;100.00;96184.44;5051669;28;20791;-73
2022/04/26 09:40:27;;;;;;;21.87;12.97;;;;;;;7.07;100.00;96166.16;5035707;28;20817;-73
2022/04/26 09:42:54;;;;;;;15.90;14.20;;;;;;;6.92;100.00;96168.47;5033182;28;20967;-73
2022/04/26 09:45:21;;;;;;;15.60;13.43;;;;;;;7.11;100.00;96174.22;5051848;28;20419;-73
2022/04/26 09:47:49;;;;;;;16.03;14.33;;;;;;;6.95;100.00;96171.28;5048914;28;20428;-74
2022/04/26 09:50:17;;;;;;;15.13;13.10;;;;;;;7.19;100.00;96189.22;5033712;28;20497;-73
2022/04/26 09:52:44;;;;;;;14.97;13.47;;;;;;;6.94;100.00;96161.03;5033617;28;20435;-73
2022/04/26 09:55:13;;;;;;;22.97;14.83;;;;;;;7.21;100.00;96178.41;5016889;28;20475;-73
2022/04/26 09:57:42;;;;;;;18.97;14.13;;;;;;;7.27;100.00;96188.47;5033193;28;20480;-73
2022/04/26 10:00:12;;;;;;;18.13;14.47;;;;;;;7.20;100.00;96196.03;5033446;28;20549;-73
2022/04/26 10:02:46;;;;;;;18.83;15.10;;;;;;;7.18;100.00;96194.78;5033369;28;20442;-73
2022/04/26 10:05:15;;;;;;;20.37;15.10;;;;;;;7.23;100.00;96194.66;5033180;28;20436;-74
2022/04/26 10:07:46;;;;;;;19.97;14.40;;;;;;;7.08;100.00;96165.09;5033277;28;20443;-73
2022/04/26 10:10:14;;;;;;;15.70;13.83;;;;;;;7.21;100.00;96173.13;5033590;28;20533;-73
2022/04/26 10:13:31;;;;;;;19.10;15.00;;;;;;;7.22;100.00;96182.59;5033549;28;20465;-73
2022/04/26 10:15:28;;;;;;;17.90;13.03;;;;;;;7.23;100.00;96198.06;5033695;28;20878;-73
2022/04/26 10:17:55;;;;;;;18.03;14.60;;;;;;;7.17;100.00;96191.38;5033298;28;20489;-74
2022/04/26 10:20:41;;;;;;;19.13;14.90;;;;;;;7.27;100.00;96195.59;5033337;28;20506;-73
2022/04/26 10:23:08;;;;;;;20.87;16.20;;;;;;;7.02;100.00;96176.06;5022613;28;20496;-73
2022/04/26 10:25:35;;;;;;;18.20;14.63;;;;;;;7.25;100.00;96198.53;5049694;28;20444;-73
2022/04/26 10:28:21;;;;;;;16.10;14.40;;;;;;;7.39;100.00;96195.75;5049401;28;20494;-73
2022/04/26 10:30:52;;;;;;;16.13;14.20;;;;;;;7.31;100.00;96186.78;5032778;28;20452;-73
2022/04/26 10:33:35;;;;;;;16.53;13.80;;;;;;;7.30;100.00;96194.97;5033083;28;20446;-73
2022/04/26 10:36:29;;;;;;;19.67;15.57;;;;;;;7.40;100.00;96203.34;5032757;28;20466;-73
2022/04/26 10:39:05;;;;;;;18.40;16.50;;;;;;;7.34;100.00;96195.91;5024684;28;20530;-73
2022/04/26 10:41:37;;;;;;;17.90;15.47;;;;;;;7.46;100.00;96198.69;5050609;28;20942;-73
2022/04/26 10:44:13;;;;;;;16.23;14.37;;;;;;;7.68;100.00;96189.88;5050929;28;20419;-73
2022/04/26 10:46:43;;;;;;;19.80;15.63;;;;;;;7.34;100.00;96143.28;5032737;28;20435;-73
2022/04/26 10:49:23;;;;;;;18.40;15.27;;;;;;;7.81;100.00;96190.81;5049358;28;20517;-73
2022/04/26 10:51:57;;;;;;;16.33;14.63;;;;;;;7.87;100.00;96189.53;5032687;28;20496;-73
2022/04/26 10:54:48;;;;;;;18.77;16.27;;;;;;;8.07;100.00;96196.03;5040675;28;20439;-73
2022/04/26 10:57:20;;;;;;;16.10;13.57;;;;;;;7.60;100.00;96159.06;5054364;28;20459;-73
2022/04/26 10:59:56;;;;;;;16.97;15.17;;;;;;;7.46;100.00;96201.31;5036312;28;20986;-73
2022/04/26 11:02:25;;;;;;;17.57;15.67;;;;;;;7.62;100.00;96184.00;5054374;28;20456;-73
2022/04/26 11:05:01;;;;;;;16.57;14.80;;;;;;;7.48;100.00;96167.63;5036500;28;20877;-74
2022/04/26 11:07:28;;;;;;;17.90;14.40;;;;;;;7.50;100.00;96178.59;5042296;28;20524;-74
2022/04/26 11:09:57;;;;;;;16.67;14.43;;;;;;;7.71;100.00;96197.16;5037160;28;20527;-74
2022/04/26 11:12:28;;;;;;;16.17;14.47;;;;;;;7.87;100.00;96211.38;5036194;28;20439;-74
2022/04/26 11:14:57;;;;;;;15.83;13.00;;;;;;;7.68;100.00;96203.81;5036963;28;20493;-74
2022/04/26 11:17:24;;;;;;;16.03;13.50;;;;;;;7.36;100.00;96172.72;5035881;28;21014;-73
2022/04/26 11:20:10;;;;;;;16.37;14.00;;;;;;;7.77;100.00;96203.81;5036166;28;20468;-73
2022/04/26 11:22:48;;;;;;;20.97;14.97;;;;;;;7.81;100.00;96191.56;5053818;28;20447;-73
2022/04/26 11:28:09;;;;;;;18.23;15.63;;;;;;;8.12;100.00;96201.91;5035976;28;20493;-74
2022/04/26 11:30:35;;;;;;;16.00;13.53;;;;;;;8.16;100.00;96202.84;5035727;28;20462;-74
2022/04/26 11:33:19;;;;;;;19.33;13.97;;;;;;;8.38;100.00;96193.19;5053726;28;20431;-73
2022/04/26 11:36:01;;;;;;;16.50;14.13;;;;;;;8.40;100.00;96191.00;5035711;28;20503;-74
2022/04/26 11:38:28;;;;;;;18.27;14.90;;;;;;;8.45;100.00;96193.50;5035451;28;20442;-74
2022/04/26 11:41:00;;;;;;;14.83;13.23;;;;;;;8.55;100.00;96198.44;5053408;28;20452;-74
2022/04/26 11:43:33;;;;;;;12.97;11.57;;;;;;;8.45;100.00;96196.13;5035528;28;20435;-74
2022/04/26 11:46:00;;;;;;;12.63;11.33;;;;;;;8.45;100.00;96191.63;5035591;28;20536;-74
2022/04/26 11:48:30;;;;;;;13.87;11.00;;;;;;;8.53;100.00;96200.56;5053077;28;20902;-74
2022/04/26 11:50:58;;;;;;;12.40;11.20;;;;;;;8.09;100.00;96173.56;5035352;28;20463;-74
2022/04/26 11:53:30;;;;;;;12.03;10.60;;;;;;;8.28;100.00;96178.50;5035383;28;20482;-75
2022/04/26 11:56:00;;;;;;;14.73;11.83;;;;;;;8.47;100.00;96212.38;5042387;28;20459;-74
2022/04/26 11:58:27;;;;;;;10.07;8.87;;;;;;;8.22;100.00;96206.06;5036757;28;20565;-75
2022/04/26 12:01:02;;;;;;;13.10;9.90;;;;;;;8.29;100.00;96195.84;5036804;28;20855;-75
2022/04/26 12:03:40;;;;;;;11.10;9.90;;;;;;;8.10;100.00;96176.97;5055391;28;20489;-75
2022/04/26 12:06:09;;;;;;;10.40;9.37;;;;;;;8.26;100.00;96206.97;5046130;28;20565;-75
2022/04/26 12:08:42;;;;;;;10.80;9.70;;;;;;;7.65;100.00;96127.34;5041758;28;20461;-75
2022/04/26 12:11:29;;;;;;;9.00;8.10;;;;;;;8.21;100.00;96213.19;5059439;28;20451;-74
2022/04/26 12:14:14;;;;;;;8.77;7.90;;;;;;;8.10;100.00;96208.56;5053781;28;20982;-75
2022/04/26 12:16:43;;;;;;;9.03;7.70;;;;;;;8.22;100.00;96213.97;5035179;28;20466;-75
2022/04/26 12:19:11;;;;;;;8.60;7.50;;;;;;;7.82;100.00;96168.66;5034938;28;20518;-75
2022/04/26 12:21:56;;;;;;;9.17;8.00;;;;;;;8.13;100.00;96211.34;5055990;28;20441;-75
2022/04/26 12:24:27;;;;;;;8.13;7.33;;;;;;;8.22;100.00;96213.97;5034856;28;20478;-75
2022/04/26 12:26:58;;;;;;;7.50;6.80;;;;;;;8.06;100.00;96199.75;5051200;28;20443;-75
2022/04/26 12:29:47;;;;;;;8.70;7.80;;;;;;;8.03;100.00;96216.19;5052842;28;20493;-75
2022/04/26 12:32:18;;;;;;;8.70;6.80;;;;;;;7.91;100.00;96198.38;5034933;28;20950;-75
2022/04/26 12:34:56;;;;;;;7.97;7.27;;;;;;;8.01;100.00;96200.69;5052531;28;20518;-75
2022/04/26 12:37:29;;;;;;;7.73;6.93;;;;;;;8.06;100.00;96218.97;5034961;28;20871;-75
2022/04/26 12:39:58;;;;;;;8.20;7.17;;;;;;;7.58;100.00;96174.41;5034741;28;20452;-75
2022/04/26 12:42:28;;;;;;;7.20;6.50;;;;;;;8.05;100.00;96216.66;5052518;28;20436;-75
2022/04/26 12:45:00;;;;;;;7.00;6.30;;;;;;;7.98;100.00;96220.50;5034750;28;20969;-75
2022/04/26 12:50:35;;;;;;;7.00;6.30;;;;;;;8.03;100.00;96221.44;5052491;28;20527;-76
2022/04/26 12:53:05;;;;;;;9.53;7.00;;;;;;;8.28;100.00;96228.53;5034541;28;20455;-75
2022/04/26 12:55:36;;;;;;;7.10;6.33;;;;;;;8.06;100.00;96205.78;5034710;28;20991;-75
2022/04/26 12:58:05;;;;;;;7.17;6.47;;;;;;;7.98;100.00;96191.53;5052126;28;20456;-75
2022/04/26 13:00:39;;;;;;;8.20;7.50;;;;;;;8.05;100.00;96221.91;5034129;28;20487;-75
2022/04/26 13:03:07;;;;;;;7.13;6.47;;;;;;;8.00;100.00;96228.84;5034333;28;20423;-75
2022/04/26 13:05:46;;;;;;;6.67;6.07;;;;;;;8.02;100.00;96198.84;5034247;28;20443;-75
2022/04/26 13:08:15;;;;;;;10.60;9.50;;;;;;;8.10;100.00;96198.81;5038019;28;20471;-75
2022/04/26 13:10:43;;;;;;;6.47;5.87;;;;;;;8.16;100.00;96231.03;5034158;28;20547;-76
2022/04/26 13:13:11;;;;;;;7.77;6.00;;;;;;;8.04;100.00;96229.03;5033962;28;20526;-75
2022/04/26 13:15:41;;;;;;;7.43;6.50;;;;;;;7.63;100.00;96200.56;5034085;28;20431;-75
2022/04/26 13:18:10;;;;;;;8.80;7.90;;;;;;;7.94;100.00;96237.25;5033557;28;20942;-76
2022/04/26 13:20:37;;;;;;;10.90;10.00;;;;;;;8.15;100.00;96238.16;5051946;28;20498;-75
2022/04/26 13:23:14;;;;;;;9.80;7.07;;;;;;;8.03;100.00;96239.88;5051951;28;20431;-75
2022/04/26 13:25:42;;;;;;;6.97;6.30;;;;;;;7.76;100.00;96207.53;5033895;28;20781;-75
2022/04/26 13:28:09;;;;;;;8.13;7.33;;;;;;;7.55;100.00;96177.66;5033803;28;20439;-75
2022/04/26 13:30:36;;;;;;;8.00;7.20;;;;;;;7.83;100.00;96209.69;5051592;28;20468;-75
2022/04/26 13:33:03;;;;;;;8.00;6.80;;;;;;;7.76;100.00;96206.75;5033830;28;20440;-75
2022/04/26 13:35:30;;;;;;;6.97;6.37;;;;;;;7.93;100.00;96233.84;5034084;28;20432;-76
2022/04/26 13:37:59;;;;;;;7.60;7.00;;;;;;;7.81;100.00;96222.38;5051568;28;20459;-75
2022/04/26 13:40:26;;;;;;;8.43;6.07;;;;;;;7.93;100.00;96238.31;5051509;28;20463;-75
2022/04/26 13:42:56;;;;;;;8.93;8.10;;;;;;;8.06;100.00;96232.13;5051958;28;20812;-75
2022/04/26 13:45:24;;;;;;;6.67;6.07;;;;;;;8.07;100.00;96238.94;5034026;28;20436;-74
2022/04/26 13:47:51;;;;;;;7.90;7.20;;;;;;;7.92;100.00;96231.53;5033925;28;20432;-75
2022/04/26 13:50:18;;;;;;;8.00;7.23;;;;;;;8.00;100.00;96233.34;5046938;28;20456;-75
2022/04/26 13:52:45;;;;;;;10.33;7.50;;;;;;;8.10;100.00;96245.44;5044192;28;20497;-75
2022/04/26 13:55:17;;;;;;;7.37;6.67;;;;;;;7.94;100.00;96211.69;5033584;28;20497;-75
2022/04/26 13:57:45;;;;;;;7.00;6.30;;;;;;;7.90;100.00;96217.91;5017048;28;20517;-75
2022/04/26 14:00:13;;;;;;;6.60;6.00;;;;;;;8.04;100.00;96247.47;5033546;28;20479;-75
2022/04/26 14:02:41;;;;;;;8.23;7.40;;;;;;;7.79;100.00;96227.97;5033568;28;20530;-75
2022/04/26 14:05:08;;;;;;;10.00;7.37;;;;;;;7.67;100.00;96235.69;5033273;28;20435;-75
2022/04/26 14:07:36;;;;;;;9.23;8.13;;;;;;;7.80;100.00;96255.06;5033371;28;20467;-75
2022/04/26 14:10:03;;;;;;;8.53;7.73;;;;;;;7.60;100.00;96225.63;5051090;28;20443;-75
2022/04/26 14:12:30;;;;;;;10.60;7.60;;;;;;;7.65;100.00;96246.53;5033172;28;20444;-75
2022/04/26 14:23:12;;;;;;;9.07;7.67;;;;;;;7.50;100.00;96240.94;5033634;28;20438;-77
2022/04/26 14:25:39;;;;;;;10.50;8.87;;;;;;;7.70;100.00;96259.53;5033753;28;20435;-77
2022/04/26 14:28:06;;;;;;;9.60;8.50;;;;;;;7.66;100.00;96258.59;5051419;28;20510;-77
2022/04/26 14:30:33;;;;;;;9.10;8.20;;;;;;;7.45;100.00;96227.94;5036615;28;20562;-76
2022/04/26 14:33:07;;;;;;;10.57;9.40;;;;;;;7.31;100.00;96220.19;5036882;28;20435;-75
2022/04/26 14:35:34;;;;;;;14.07;9.43;;;;;;;7.57;100.00;96252.56;5036751;28;20478;-75
2022/04/26 14:38:01;;;;;;;11.13;9.47;;;;;;;7.50;100.00;96240.94;5036638;28;20569;-75
2022/04/26 14:40:28;;;;;;;9.80;8.80;;;;;;;7.28;100.00;96226.06;5036861;28;20880;-76
2022/04/26 14:42:59;;;;;;;9.73;8.73;;;;;;;7.31;100.00;96225.44;5036525;28;20430;-76
2022/04/26 14:45:32;;;;;;;9.20;8.30;;;;;;;7.57;100.00;96270.97;5036710;28;20512;-75
2022/04/26 14:48:00;;;;;;;9.30;8.43;;;;;;;7.57;100.00;96249.91;5036252;28;21018;-75
2022/04/26 14:50:30;;;;;;;8.63;7.87;;;;;;;7.93;100.00;96270.69;5054383;28;20457;-75
2022/04/26 14:52:56;;;;;;;9.37;8.47;;;;;;;7.57;100.00;96230.72;5036523;28;20815;-75
2022/04/26 14:55:23;;;;;;;9.20;8.30;;;;;;;7.56;100.00;96237.06;5054402;28;20527;-75
2022/04/26 14:57:50;;;;;;;9.33;8.13;;;;;;;7.83;100.00;96267.59;5035713;28;20533;-75
2022/04/26 15:00:17;;;;;;;13.17;8.70;;;;;;;7.89;100.00;96274.25;5036136;28;20553;-75
2022/04/26 15:02:43;;;;;;;9.93;7.70;;;;;;;7.78;100.00;96259.84;5054057;28;20445;-75
2022/04/26 15:05:11;;;;;;;8.77;7.90;;;;;;;7.79;100.00;96259.53;5036140;28;20447;-75
2022/04/26 15:10:25;;;;;;;9.50;8.60;;;;;;;7.59;100.00;96245.13;5036010;28;20550;-75
2022/04/26 15:18:23;;;;;;;8.83;7.93;;;;;;;7.67;100.00;96268.03;5036037;28;20959;-75
2022/04/26 15:20:53;;;;;;;8.80;7.80;;;;;;;7.55;100.00;96243.44;5035790;28;20472;-75
2022/04/26 15:23:20;;;;;;;9.63;8.63;;;;;;;7.67;100.00;96268.03;5036497;28;20423;-75
2022/04/26 15:25:52;;;;;;;8.63;7.73;;;;;;;7.92;100.00;96289.44;5036005;28;20531;-76
2022/04/26 15:28:20;;;;;;;9.77;7.77;;;;;;;7.64;100.00;96288.94;5052755;28;20524;-76
2022/04/26 15:30:48;;;;;;;10.03;9.03;;;;;;;7.45;100.00;96249.75;5054022;28;20870;-75
2022/04/26 15:33:19;;;;;;;10.00;9.00;;;;;;;7.71;100.00;96287.38;5054339;28;20496;-76
2022/04/26 15:35:46;;;;;;;10.07;8.70;;;;;;;7.68;100.00;96279.34;5036700;28;20900;-76
2022/04/26 15:38:13;;;;;;;10.23;9.23;;;;;;;7.25;100.00;96230.09;5036059;28;20529;-76
2022/04/26 15:40:41;;;;;;;9.83;9.00;;;;;;;7.74;100.00;96290.47;5051361;28;20455;-76
2022/04/26 15:43:08;;;;;;;10.93;9.90;;;;;;;7.59;100.00;96265.41;5036024;28;20474;-76